Time;durP1;ratioP1;P1;durP2;ratioP2;P2;SDS_P1;SDS_P2;PMS_P1;PMS_P2;Temp;Humidity;BMP_temperature;BMP_pressure;BME280_temperature;BME280_humidity;BME280_pressure;Samples;Min_cycle;Max_cycle;Signal;HPM_P1;HPM_P2
2022/07/22 00:01:34;;;;;;;10.00;2.35;;;16.60;99.90;;;;;;5045439;28;20044;-60
2022/07/22 00:04:01;;;;;;;6.85;2.05;;;16.60;99.90;;;;;;5048211;28;20072;-60
2022/07/22 00:06:27;;;;;;;8.02;2.20;;;16.60;99.90;;;;;;5052747;28;20049;-60
2022/07/22 00:08:53;;;;;;;6.47;2.08;;;16.50;99.90;;;;;;5052399;28;20124;-59
2022/07/22 00:11:18;;;;;;;8.05;2.40;;;16.50;99.90;;;;;;5052722;28;20098;-60
2022/07/22 00:13:45;;;;;;;21.45;3.15;;;16.50;99.90;;;;;;5052654;28;20037;-60
2022/07/22 00:16:10;;;;;;;7.05;2.30;;;16.60;99.90;;;;;;5051901;28;20510;-60
2022/07/22 00:18:36;;;;;;;8.00;2.47;;;16.50;99.90;;;;;;5053186;28;20041;-60
2022/07/22 00:21:02;;;;;;;9.25;2.55;;;16.50;99.90;;;;;;5052298;28;20106;-60
2022/07/22 00:23:27;;;;;;;8.82;2.70;;;16.50;99.90;;;;;;5051929;28;20048;-60
2022/07/22 00:25:53;;;;;;;3.88;1.67;;;16.50;99.90;;;;;;5052775;28;20044;-60
2022/07/22 00:28:19;;;;;;;15.93;2.60;;;16.50;99.90;;;;;;5052881;28;20040;-60
2022/07/22 00:30:45;;;;;;;10.25;2.75;;;16.40;99.90;;;;;;5051837;28;20037;-59
2022/07/22 00:33:11;;;;;;;8.02;2.03;;;16.40;99.90;;;;;;5053012;28;20041;-59
2022/07/22 00:35:36;;;;;;;5.72;1.77;;;16.50;99.90;;;;;;5052721;28;20044;-60
2022/07/22 00:38:02;;;;;;;5.80;2.28;;;16.40;99.90;;;;;;5051368;28;20040;-60
2022/07/22 00:40:27;;;;;;;4.18;1.95;;;16.50;99.90;;;;;;5052979;28;20071;-60
2022/07/22 00:42:53;;;;;;;8.35;2.03;;;16.40;99.90;;;;;;5052723;28;20137;-59
2022/07/22 00:45:19;;;;;;;8.13;1.88;;;16.40;99.90;;;;;;5050525;28;20654;-60
2022/07/22 00:47:45;;;;;;;10.02;1.98;;;16.40;99.90;;;;;;5053050;28;20566;-60
2022/07/22 00:50:11;;;;;;;9.45;2.42;;;16.40;99.90;;;;;;5052164;28;20029;-59
2022/07/22 00:52:37;;;;;;;5.85;2.15;;;16.40;99.90;;;;;;5052243;28;20407;-60
2022/07/22 00:55:04;;;;;;;11.15;1.90;;;16.40;99.90;;;;;;5052254;28;20057;-60
2022/07/22 00:57:30;;;;;;;5.78;1.55;;;16.40;99.90;;;;;;5052250;28;20059;-60
2022/07/22 00:59:56;;;;;;;4.13;1.83;;;16.40;99.90;;;;;;5051520;28;20503;-60
2022/07/22 01:02:22;;;;;;;6.10;2.13;;;16.30;99.90;;;;;;5052945;28;20045;-59
2022/07/22 01:04:47;;;;;;;9.30;1.65;;;16.40;99.90;;;;;;5051916;28;20048;-60
2022/07/22 01:07:13;;;;;;;11.35;2.10;;;16.40;99.90;;;;;;5051742;28;20045;-60
2022/07/22 01:09:45;;;;;;;5.90;1.98;;;16.40;99.90;;;;;;5052260;28;20047;-60
2022/07/22 01:12:11;;;;;;;8.27;2.38;;;16.40;99.90;;;;;;5051651;28;20037;-60
2022/07/22 01:14:37;;;;;;;4.95;1.80;;;16.40;99.90;;;;;;5051887;28;20056;-60
2022/07/22 01:17:03;;;;;;;6.07;1.80;;;16.30;99.90;;;;;;5048178;28;20047;-59
2022/07/22 01:19:29;;;;;;;5.90;1.95;;;16.40;99.90;;;;;;5048723;28;20053;-60
2022/07/22 01:21:55;;;;;;;10.32;1.75;;;16.40;99.90;;;;;;5048980;28;20079;-60
2022/07/22 01:24:20;;;;;;;7.43;2.17;;;16.40;99.90;;;;;;5048201;28;20037;-59
2022/07/22 01:26:46;;;;;;;5.55;1.27;;;16.30;99.90;;;;;;5048071;28;20128;-60
2022/07/22 01:29:12;;;;;;;4.82;1.95;;;16.30;99.90;;;;;;5048545;28;20056;-59
2022/07/22 01:31:37;;;;;;;7.05;1.60;;;16.30;99.90;;;;;;5048912;28;20385;-59
2022/07/22 01:34:03;;;;;;;5.85;1.98;;;16.30;99.90;;;;;;5047839;28;20045;-60
2022/07/22 01:36:29;;;;;;;9.43;1.85;;;16.30;99.90;;;;;;5048782;28;20055;-60
2022/07/22 01:38:55;;;;;;;3.63;1.27;;;16.30;99.90;;;;;;5048928;28;20125;-60
2022/07/22 01:41:21;;;;;;;8.00;1.52;;;16.30;99.90;;;;;;5048304;28;20120;-60
2022/07/22 01:43:46;;;;;;;6.18;2.28;;;16.30;99.90;;;;;;5048719;28;20124;-59
2022/07/22 01:46:12;;;;;;;12.73;2.15;;;16.30;99.90;;;;;;5048906;28;20041;-59
2022/07/22 01:48:38;;;;;;;5.63;2.03;;;16.20;99.90;;;;;;5047511;28;20073;-60
2022/07/22 01:51:04;;;;;;;6.95;1.77;;;16.30;99.90;;;;;;5048447;28;20033;-60
2022/07/22 01:53:30;;;;;;;2.75;1.55;;;16.20;99.90;;;;;;5048395;28;20066;-60
2022/07/22 01:55:55;;;;;;;8.02;1.73;;;16.20;99.90;;;;;;5047944;28;20041;-60
2022/07/22 01:58:21;;;;;;;4.95;1.83;;;16.20;99.90;;;;;;5048807;28;20204;-60
2022/07/22 02:00:47;;;;;;;5.72;1.92;;;16.20;99.90;;;;;;5048738;28;20054;-59
2022/07/22 02:03:13;;;;;;;4.20;1.63;;;16.20;99.90;;;;;;5046250;28;20141;-60
2022/07/22 02:05:38;;;;;;;7.47;1.33;;;16.20;99.90;;;;;;5048695;28;20049;-59
2022/07/22 02:08:09;;;;;;;5.47;1.23;;;16.20;99.90;;;;;;5048145;28;20435;-59
2022/07/22 02:10:36;;;;;;;4.18;1.50;;;16.20;99.90;;;;;;5047564;28;20537;-60
2022/07/22 02:13:02;;;;;;;4.60;1.35;;;16.30;99.90;;;;;;5047710;28;20033;-60
2022/07/22 02:15:27;;;;;;;3.17;1.02;;;16.20;99.90;;;;;;5047653;28;20048;-59
2022/07/22 02:17:54;;;;;;;3.42;1.35;;;16.20;99.90;;;;;;5048381;28;20045;-59
2022/07/22 02:20:21;;;;;;;6.43;1.05;;;16.20;99.90;;;;;;5047294;28;20044;-59
2022/07/22 02:22:46;;;;;;;3.45;1.17;;;16.20;99.90;;;;;;5047148;28;20358;-60
2022/07/22 02:25:12;;;;;;;3.92;1.33;;;16.20;99.90;;;;;;5047933;28;20478;-60
2022/07/22 02:27:38;;;;;;;5.70;1.52;;;16.20;99.90;;;;;;5046914;28;20052;-59
2022/07/22 02:30:05;;;;;;;6.38;1.48;;;16.10;99.90;;;;;;5046736;28;20108;-60
2022/07/22 02:32:31;;;;;;;4.38;1.17;;;16.20;99.90;;;;;;5047883;28;20136;-60
2022/07/22 02:34:57;;;;;;;4.38;1.30;;;16.10;99.90;;;;;;5047659;28;20612;-59
2022/07/22 02:37:23;;;;;;;3.85;1.00;;;16.10;99.90;;;;;;5047739;28;20562;-60
2022/07/22 02:39:49;;;;;;;4.82;0.95;;;16.10;99.90;;;;;;5047397;28;20408;-60
2022/07/22 02:42:15;;;;;;;3.17;1.17;;;16.20;99.90;;;;;;5047676;28;20073;-60
2022/07/22 02:44:40;;;;;;;3.50;1.35;;;16.10;99.90;;;;;;5046966;28;20037;-59
2022/07/22 02:47:06;;;;;;;3.95;1.20;;;16.10;99.90;;;;;;5047546;28;20049;-59
2022/07/22 02:49:32;;;;;;;4.10;1.25;;;16.00;99.90;;;;;;5048027;28;20323;-59
2022/07/22 02:51:57;;;;;;;2.92;1.40;;;15.90;99.90;;;;;;5046958;28;20434;-59
2022/07/22 02:54:24;;;;;;;4.63;1.70;;;16.00;99.90;;;;;;5047816;28;20041;-60
2022/07/22 02:56:49;;;;;;;3.10;1.15;;;15.90;99.90;;;;;;5047559;28;20053;-60
2022/07/22 02:59:15;;;;;;;1.60;1.17;;;15.90;99.90;;;;;;5046675;28;20083;-60
2022/07/22 03:01:41;;;;;;;4.10;1.27;;;15.90;99.90;;;;;;5047536;28;20112;-59
2022/07/22 03:04:06;;;;;;;4.50;1.42;;;15.90;99.90;;;;;;5053236;28;20178;-60
2022/07/22 03:06:32;;;;;;;5.28;1.83;;;15.80;99.90;;;;;;5055904;28;20056;-60
2022/07/22 03:08:58;;;;;;;5.00;1.60;;;15.80;99.90;;;;;;5056518;28;20044;-60
2022/07/22 03:11:23;;;;;;;3.05;1.65;;;16.00;99.90;;;;;;5057447;28;20397;-60
2022/07/22 03:13:49;;;;;;;6.28;1.42;;;15.80;99.90;;;;;;5050810;28;20049;-60
2022/07/22 03:16:14;;;;;;;7.38;1.50;;;15.80;99.90;;;;;;5047720;28;20037;-60
2022/07/22 03:18:40;;;;;;;6.82;1.77;;;15.80;99.90;;;;;;5047116;28;20045;-60
2022/07/22 03:21:06;;;;;;;2.50;1.50;;;15.80;99.90;;;;;;5046117;28;20051;-60
2022/07/22 03:23:31;;;;;;;4.82;1.55;;;15.90;99.90;;;;;;5047008;28;20382;-60
2022/07/22 03:25:57;;;;;;;4.93;1.88;;;15.80;99.90;;;;;;5045888;28;20124;-60
2022/07/22 03:28:23;;;;;;;3.72;1.40;;;15.80;99.90;;;;;;5047122;28;20045;-60
2022/07/22 03:30:48;;;;;;;3.70;1.35;;;16.10;99.90;;;;;;5046694;28;20044;-60
2022/07/22 03:33:14;;;;;;;5.45;1.77;;;15.80;99.90;;;;;;5044815;28;20091;-60
2022/07/22 03:35:40;;;;;;;3.55;1.40;;;15.90;99.90;;;;;;5046778;28;20033;-60
2022/07/22 03:38:06;;;;;;;3.92;1.70;;;15.90;99.90;;;;;;5045757;28;20071;-60
2022/07/22 03:40:31;;;;;;;3.85;1.35;;;15.90;99.90;;;;;;5046156;28;20041;-60
2022/07/22 03:42:57;;;;;;;4.75;1.40;;;15.90;99.90;;;;;;5046532;28;20425;-60
2022/07/22 03:45:22;;;;;;;7.72;1.80;;;15.90;99.90;;;;;;5046953;28;20051;-60
2022/07/22 03:47:48;;;;;;;5.95;1.50;;;15.90;99.90;;;;;;5045487;28;20128;-60
2022/07/22 03:50:14;;;;;;;2.85;1.23;;;15.90;99.90;;;;;;5046285;28;20085;-60
2022/07/22 03:52:39;;;;;;;3.45;1.45;;;15.90;99.90;;;;;;5046552;28;20064;-59
2022/07/22 03:55:06;;;;;;;5.75;1.60;;;16.00;99.90;;;;;;5045116;28;20255;-59
2022/07/22 03:57:32;;;;;;;3.92;1.70;;;15.90;99.90;;;;;;5046074;28;20136;-60
2022/07/22 03:59:58;;;;;;;5.43;1.65;;;15.90;99.90;;;;;;5046168;28;20132;-60
2022/07/22 04:02:23;;;;;;;1.20;1.02;;;15.90;99.90;;;;;;5046074;28;20076;-60
2022/07/22 04:04:49;;;;;;;2.88;1.30;;;15.90;99.90;;;;;;5045948;28;20531;-60
2022/07/22 04:07:14;;;;;;;2.13;1.13;;;15.80;99.90;;;;;;5046621;28;21162;-59
2022/07/22 04:09:40;;;;;;;4.95;1.50;;;15.80;99.90;;;;;;5045722;28;20045;-59
2022/07/22 04:12:06;;;;;;;6.65;1.30;;;15.90;99.90;;;;;;5045710;28;20049;-59
2022/07/22 04:14:31;;;;;;;4.63;1.52;;;15.80;99.90;;;;;;5046490;28;20527;-60
2022/07/22 04:16:57;;;;;;;2.05;0.77;;;15.80;99.90;;;;;;5045239;28;20515;-60
2022/07/22 04:19:23;;;;;;;4.85;1.23;;;15.80;99.90;;;;;;5046585;28;20044;-60
2022/07/22 04:21:49;;;;;;;4.13;1.20;;;15.80;99.90;;;;;;5045791;28;20564;-60
2022/07/22 04:24:14;;;;;;;6.32;1.35;;;15.80;99.90;;;;;;5045120;28;20052;-59
2022/07/22 04:26:40;;;;;;;3.95;1.38;;;15.90;99.90;;;;;;5045849;28;20487;-60
2022/07/22 04:29:06;;;;;;;2.70;1.10;;;15.80;99.90;;;;;;5044721;28;20084;-59
2022/07/22 04:31:32;;;;;;;4.13;1.20;;;15.80;99.90;;;;;;5046007;28;20134;-59
2022/07/22 04:33:58;;;;;;;3.35;1.08;;;15.90;99.90;;;;;;5046010;28;20095;-60
2022/07/22 04:36:23;;;;;;;4.75;1.38;;;15.90;99.90;;;;;;5045510;28;20451;-60
2022/07/22 04:38:49;;;;;;;4.75;1.23;;;15.90;99.90;;;;;;5045717;28;20123;-60
2022/07/22 04:41:15;;;;;;;3.08;1.10;;;16.00;99.90;;;;;;5045791;28;20037;-60
2022/07/22 04:43:41;;;;;;;6.75;1.80;;;15.80;99.90;;;;;;5045307;28;20044;-59
2022/07/22 04:46:06;;;;;;;4.38;1.63;;;15.80;99.90;;;;;;5045579;28;20060;-59
2022/07/22 04:48:32;;;;;;;2.88;1.30;;;15.80;99.90;;;;;;5045881;28;20041;-59
2022/07/22 04:51:00;;;;;;;3.22;1.15;;;15.80;99.90;;;;;;5046456;28;20492;-60
2022/07/22 04:53:26;;;;;;;2.55;1.20;;;15.80;99.90;;;;;;5049530;28;20045;-59
2022/07/22 04:55:51;;;;;;;3.15;1.02;;;15.80;99.90;;;;;;5049652;28;20047;-59
2022/07/22 04:58:17;;;;;;;3.30;1.10;;;15.80;99.90;;;;;;5048361;28;20063;-60
2022/07/22 05:00:42;;;;;;;2.60;1.15;;;15.80;99.90;;;;;;5049357;28;20087;-60
2022/07/22 05:03:08;;;;;;;6.15;1.70;;;15.80;99.90;;;;;;5048756;28;20102;-60
2022/07/22 05:05:34;;;;;;;7.05;1.52;;;15.80;99.90;;;;;;5048669;28;20037;-59
2022/07/22 05:07:59;;;;;;;3.17;1.02;;;15.70;99.90;;;;;;5048890;28;20076;-60
2022/07/22 05:10:25;;;;;;;4.43;1.23;;;15.80;99.90;;;;;;5049351;28;20037;-59
2022/07/22 05:12:52;;;;;;;2.33;1.23;;;15.80;99.90;;;;;;5047380;28;20053;-59
2022/07/22 05:15:17;;;;;;;4.22;1.40;;;15.80;99.90;;;;;;5049289;28;20048;-60
2022/07/22 05:17:43;;;;;;;3.60;1.70;;;15.80;99.90;;;;;;5049006;28;20045;-60
2022/07/22 05:20:10;;;;;;;4.18;1.70;;;15.90;99.90;;;;;;5048134;28;20116;-60
2022/07/22 05:22:35;;;;;;;5.32;1.17;;;15.80;99.90;;;;;;5049017;28;20044;-60
2022/07/22 05:25:01;;;;;;;4.20;1.35;;;15.90;99.90;;;;;;5048619;28;20041;-59
2022/07/22 05:27:27;;;;;;;5.70;1.33;;;15.90;99.90;;;;;;5048606;28;20048;-59
2022/07/22 05:29:52;;;;;;;4.03;1.23;;;16.00;99.90;;;;;;5049202;28;20526;-60
2022/07/22 05:32:18;;;;;;;4.75;1.48;;;16.00;99.90;;;;;;5048302;28;20049;-59
2022/07/22 05:34:43;;;;;;;2.85;1.33;;;16.20;99.90;;;;;;5048306;28;20415;-59
2022/07/22 05:37:09;;;;;;;3.85;1.33;;;16.00;99.90;;;;;;5048412;28;20045;-60
2022/07/22 05:39:35;;;;;;;4.22;1.38;;;16.00;99.90;;;;;;5047991;28;20048;-60
2022/07/22 05:42:00;;;;;;;3.83;1.20;;;16.10;99.90;;;;;;5048571;28;20544;-60
2022/07/22 05:44:26;;;;;;;4.82;1.50;;;16.30;99.90;;;;;;5048774;28;20056;-60
2022/07/22 05:46:52;;;;;;;3.88;1.35;;;16.10;99.90;;;;;;5048387;28;20072;-59
2022/07/22 05:49:18;;;;;;;2.97;1.20;;;16.20;99.90;;;;;;5048646;28;20412;-60
2022/07/22 05:51:43;;;;;;;2.78;1.20;;;16.30;99.90;;;;;;5048525;28;20057;-59
2022/07/22 05:54:09;;;;;;;3.60;1.25;;;16.20;99.90;;;;;;5047651;28;20469;-59
2022/07/22 05:56:35;;;;;;;2.50;1.10;;;16.20;99.90;;;;;;5048198;28;20045;-59
2022/07/22 05:59:00;;;;;;;4.05;1.33;;;16.30;99.90;;;;;;5048246;28;20049;-60
2022/07/22 06:01:26;;;;;;;2.25;1.42;;;16.30;99.90;;;;;;5062957;28;20080;-59
2022/07/22 06:03:51;;;;;;;3.15;1.10;;;16.30;99.90;;;;;;5048849;28;20048;-60
2022/07/22 06:06:17;;;;;;;4.07;1.35;;;16.40;99.90;;;;;;5048279;28;20370;-60
2022/07/22 06:08:43;;;;;;;7.55;1.67;;;16.40;99.90;;;;;;5047524;28;20136;-59
2022/07/22 06:11:08;;;;;;;3.25;1.52;;;16.40;99.90;;;;;;5047754;28;20041;-59
2022/07/22 06:13:34;;;;;;;6.35;1.30;;;16.40;99.90;;;;;;5048175;28;20037;-59
2022/07/22 06:16:00;;;;;;;4.07;1.17;;;16.40;99.90;;;;;;5047103;28;20037;-59
2022/07/22 06:18:25;;;;;;;3.47;1.38;;;16.50;99.90;;;;;;5048135;28;20049;-60
2022/07/22 06:20:51;;;;;;;4.22;1.25;;;16.50;99.90;;;;;;5048151;28;20518;-59
2022/07/22 06:23:17;;;;;;;4.32;1.20;;;16.50;99.90;;;;;;5046919;28;20403;-59
2022/07/22 06:25:43;;;;;;;4.60;1.25;;;16.50;99.90;;;;;;5048305;28;20053;-59
2022/07/22 06:28:09;;;;;;;6.88;1.50;;;16.50;99.90;;;;;;5047488;28;20124;-59
2022/07/22 06:30:35;;;;;;;2.78;1.58;;;16.50;99.90;;;;;;5047171;28;20045;-59
2022/07/22 06:33:01;;;;;;;8.15;1.17;;;16.50;99.90;;;;;;5047522;28;20510;-60
2022/07/22 06:35:26;;;;;;;5.75;1.80;;;16.50;99.90;;;;;;5047594;28;20111;-60
2022/07/22 06:37:53;;;;;;;2.53;1.00;;;16.60;99.90;;;;;;5047594;28;20070;-60
2022/07/22 06:40:18;;;;;;;11.93;1.40;;;16.60;99.90;;;;;;5047756;28;20052;-60
2022/07/22 06:42:44;;;;;;;4.70;1.40;;;16.60;99.90;;;;;;5046936;28;20048;-59
2022/07/22 06:45:10;;;;;;;4.13;1.30;;;16.70;99.90;;;;;;5047354;28;20087;-59
2022/07/22 06:47:36;;;;;;;6.47;1.58;;;16.70;99.90;;;;;;5046974;28;20116;-60
2022/07/22 06:50:03;;;;;;;2.63;0.85;;;16.70;99.90;;;;;;5046644;28;20321;-59
2022/07/22 06:52:29;;;;;;;2.70;1.30;;;16.70;99.90;;;;;;5047232;28;20071;-59
2022/07/22 06:54:54;;;;;;;7.75;1.55;;;16.80;99.90;;;;;;5047550;28;20045;-60
2022/07/22 06:57:20;;;;;;;7.90;1.67;;;16.80;99.90;;;;;;5046391;28;20389;-60
2022/07/22 06:59:46;;;;;;;5.38;0.95;;;16.80;99.90;;;;;;5046913;28;20105;-60
2022/07/22 07:02:11;;;;;;;5.03;1.30;;;17.00;99.90;;;;;;5046819;28;20048;-60
2022/07/22 07:04:37;;;;;;;4.63;1.45;;;16.80;99.90;;;;;;5046530;28;20048;-59
2022/07/22 07:07:02;;;;;;;6.70;1.42;;;16.80;99.90;;;;;;5046752;28;20640;-59
2022/07/22 07:09:28;;;;;;;2.20;0.80;;;16.90;99.90;;;;;;5047137;28;20037;-60
2022/07/22 07:11:54;;;;;;;4.45;1.05;;;16.90;99.90;;;;;;5046343;28;20078;-59
2022/07/22 07:14:19;;;;;;;5.38;1.27;;;17.00;99.90;;;;;;5046466;28;20102;-59
2022/07/22 07:16:45;;;;;;;3.55;1.05;;;17.00;99.90;;;;;;5047108;28;21184;-60
2022/07/22 07:19:11;;;;;;;2.90;1.02;;;17.00;99.90;;;;;;5046000;28;20449;-60
2022/07/22 07:21:36;;;;;;;3.47;0.98;;;17.20;99.90;;;;;;5046783;28;20508;-60
2022/07/22 07:24:02;;;;;;;3.47;0.95;;;17.10;99.90;;;;;;5046500;28;20179;-60
2022/07/22 07:26:28;;;;;;;3.40;1.23;;;17.10;99.90;;;;;;5045917;28;20043;-60
2022/07/22 07:28:53;;;;;;;1.85;0.82;;;17.10;99.90;;;;;;5046983;28;20045;-59
2022/07/22 07:31:19;;;;;;;2.35;0.98;;;17.20;99.90;;;;;;5046824;28;20151;-59
2022/07/22 07:33:44;;;;;;;3.22;0.98;;;17.20;99.90;;;;;;5045853;28;20824;-60
2022/07/22 07:36:10;;;;;;;2.30;0.82;;;17.20;99.90;;;;;;5046424;28;20123;-59
2022/07/22 07:38:36;;;;;;;8.88;1.05;;;17.30;99.90;;;;;;5046408;28;20052;-59
2022/07/22 07:41:02;;;;;;;5.53;1.08;;;17.30;99.90;;;;;;5045365;28;20047;-60
2022/07/22 07:43:28;;;;;;;4.15;1.20;;;17.30;99.90;;;;;;5046740;28;20138;-60
2022/07/22 07:45:53;;;;;;;1.95;0.90;;;17.20;99.90;;;;;;5046475;28;20472;-59
2022/07/22 07:48:19;;;;;;;8.40;1.10;;;17.40;99.90;;;;;;5045615;28;20055;-60
2022/07/22 07:50:45;;;;;;;2.42;0.90;;;17.40;99.90;;;;;;5046430;28;20037;-60
2022/07/22 07:53:15;;;;;;;3.05;1.15;;;17.40;99.90;;;;;;5043966;28;20052;-60
2022/07/22 07:55:41;;;;;;;4.88;1.13;;;17.40;99.90;;;;;;5046521;28;20033;-60
2022/07/22 07:58:07;;;;;;;2.90;0.90;;;17.40;99.90;;;;;;5045877;28;20048;-60
2022/07/22 08:00:34;;;;;;;3.67;1.17;;;17.50;99.90;;;;;;5045618;28;20045;-60
2022/07/22 08:03:00;;;;;;;4.82;1.05;;;17.50;99.90;;;;;;5045974;28;20095;-60
2022/07/22 08:05:26;;;;;;;2.15;1.05;;;17.50;99.90;;;;;;5045890;28;20048;-60
2022/07/22 08:07:52;;;;;;;2.55;0.65;;;17.50;99.90;;;;;;5045929;28;20056;-60
2022/07/22 08:10:19;;;;;;;5.63;1.10;;;17.50;99.90;;;;;;5046134;28;20115;-59
2022/07/22 08:12:44;;;;;;;3.15;0.80;;;17.60;99.90;;;;;;5046126;28;20573;-59
2022/07/22 08:15:10;;;;;;;3.25;0.90;;;17.50;99.90;;;;;;5045089;28;20037;-60
2022/07/22 08:17:36;;;;;;;3.60;1.17;;;17.50;99.90;;;;;;5046304;28;20041;-60
2022/07/22 08:20:05;;;;;;;2.42;0.93;;;17.60;99.90;;;;;;5046008;28;20102;-59
2022/07/22 08:22:31;;;;;;;2.50;0.90;;;17.50;99.90;;;;;;5045742;28;20045;-60
2022/07/22 08:24:56;;;;;;;4.00;0.90;;;17.50;99.90;;;;;;5047489;28;20488;-59
2022/07/22 08:27:22;;;;;;;0.93;0.70;;;17.70;99.90;;;;;;5050756;28;20080;-59
2022/07/22 08:29:47;;;;;;;6.25;0.90;;;17.50;99.90;;;;;;5049190;28;20040;-60
2022/07/22 08:32:13;;;;;;;5.10;1.52;;;17.60;99.90;;;;;;5049976;28;20099;-60
2022/07/22 08:34:39;;;;;;;2.55;0.88;;;17.50;99.90;;;;;;5050254;28;20116;-59
2022/07/22 08:37:04;;;;;;;2.83;0.82;;;17.50;99.90;;;;;;5048901;28;20360;-60
2022/07/22 08:39:30;;;;;;;2.72;0.50;;;17.50;99.90;;;;;;5050370;28;20502;-59
2022/07/22 08:41:56;;;;;;;3.78;0.75;;;17.50;99.90;;;;;;5049718;28;20072;-60
2022/07/22 08:44:22;;;;;;;1.60;0.55;;;17.60;99.90;;;;;;5047982;28;20081;-60
2022/07/22 08:46:48;;;;;;;1.27;0.50;;;17.60;99.90;;;;;;5049472;28;20055;-60
2022/07/22 08:49:15;;;;;;;4.10;0.60;;;17.60;99.90;;;;;;5049616;28;20045;-60
2022/07/22 08:51:41;;;;;;;1.67;0.50;;;17.60;99.90;;;;;;5049433;28;20106;-59
2022/07/22 08:54:07;;;;;;;2.03;0.60;;;17.60;99.90;;;;;;5049452;28;20547;-59
2022/07/22 08:56:33;;;;;;;4.35;0.88;;;17.60;99.90;;;;;;5048697;28;20063;-60
2022/07/22 08:58:58;;;;;;;5.03;0.70;;;17.70;99.90;;;;;;5049318;28;20045;-60
2022/07/22 09:01:24;;;;;;;1.80;0.47;;;17.70;99.90;;;;;;5049910;28;20373;-59
2022/07/22 09:03:55;;;;;;;2.55;0.70;;;17.70;99.90;;;;;;5048386;28;20619;-60
2022/07/22 09:06:23;;;;;;;3.42;0.93;;;17.80;99.90;;;;;;5050017;28;20045;-60
2022/07/22 09:08:59;;;;;;;2.13;0.73;;;17.90;99.90;;;;;;5049037;28;20503;-60
2022/07/22 09:11:28;;;;;;;2.08;0.65;;;17.90;99.90;;;;;;5049008;28;20400;-60
2022/07/22 09:13:54;;;;;;;2.67;0.60;;;18.00;99.90;;;;;;5049259;28;20125;-60
2022/07/22 09:16:39;;;;;;;2.78;0.63;;;18.00;99.90;;;;;;5048996;28;20045;-60
2022/07/22 09:19:05;;;;;;;3.42;0.80;;;18.10;99.90;;;;;;5048307;28;20033;-60
2022/07/22 09:21:31;;;;;;;4.10;0.70;;;18.10;99.90;;;;;;5049044;28;20099;-60
2022/07/22 09:23:57;;;;;;;3.78;0.65;;;18.20;99.90;;;;;;5047762;28;20389;-60
2022/07/22 09:26:36;;;;;;;2.25;0.70;;;18.10;99.90;;;;;;5048364;28;20496;-60
2022/07/22 09:29:04;;;;;;;1.50;0.65;;;18.10;99.90;;;;;;5048837;28;20098;-60
2022/07/22 09:31:33;;;;;;;2.17;0.60;;;18.10;99.90;;;;;;5048589;28;20048;-59
2022/07/22 09:33:59;;;;;;;2.83;0.85;;;18.00;99.90;;;;;;5048750;28;20120;-60
2022/07/22 09:36:25;;;;;;;2.13;0.70;;;18.00;99.90;;;;;;5048540;28;20041;-60
2022/07/22 09:38:51;;;;;;;0.63;0.40;;;18.10;99.90;;;;;;5063713;28;20110;-60
2022/07/22 09:41:17;;;;;;;2.28;0.70;;;18.10;99.90;;;;;;5048578;28;20124;-60
2022/07/22 09:43:43;;;;;;;1.85;0.55;;;18.10;99.90;;;;;;5048699;28;20044;-59
2022/07/22 09:46:09;;;;;;;0.80;0.50;;;18.20;99.90;;;;;;5047830;28;20589;-60
2022/07/22 09:48:39;;;;;;;1.10;0.60;;;18.20;99.90;;;;;;5048791;28;20083;-60
2022/07/22 09:51:05;;;;;;;1.75;0.50;;;18.30;99.90;;;;;;5048169;28;20131;-60
2022/07/22 09:53:32;;;;;;;0.55;0.40;;;18.40;99.90;;;;;;5047680;28;20124;-60
2022/07/22 09:56:00;;;;;;;1.45;0.60;;;18.40;99.90;;;;;;5047852;28;20036;-60
2022/07/22 09:58:27;;;;;;;1.52;0.63;;;18.50;99.90;;;;;;5048527;28;20064;-60
2022/07/22 10:00:53;;;;;;;5.40;0.50;;;18.50;99.90;;;;;;5047661;28;20060;-60
2022/07/22 10:03:27;;;;;;;3.10;0.80;;;18.50;99.90;;;;;;5048126;28;20128;-60
2022/07/22 10:05:54;;;;;;;4.38;0.70;;;18.50;99.90;;;;;;5048409;28;20045;-60
2022/07/22 10:08:20;;;;;;;1.38;0.40;;;18.50;99.90;;;;;;5047224;28;20051;-60
2022/07/22 10:10:45;;;;;;;2.40;0.82;;;18.50;99.90;;;;;;5048431;28;20041;-60
2022/07/22 10:13:11;;;;;;;1.85;0.57;;;18.40;99.90;;;;;;5048099;28;20399;-60
2022/07/22 10:15:38;;;;;;;2.03;0.50;;;18.40;99.90;;;;;;5047607;28;20080;-60
2022/07/22 10:18:13;;;;;;;3.97;0.40;;;18.40;99.90;;;;;;5047798;28;20048;-60
2022/07/22 10:20:39;;;;;;;1.95;0.50;;;18.30;99.90;;;;;;5047809;28;20041;-60
2022/07/22 10:23:09;;;;;;;1.73;0.88;;;18.40;99.90;;;;;;5046713;28;20053;-60
2022/07/22 10:25:54;;;;;;;2.13;0.85;;;18.40;99.90;;;;;;5048069;28;20040;-60
2022/07/22 10:28:31;;;;;;;2.65;0.73;;;18.40;99.90;;;;;;5047311;28;20081;-59
2022/07/22 10:31:24;;;;;;;2.65;0.52;;;18.40;99.90;;;;;;5047674;28;20162;-60
2022/07/22 10:33:52;;;;;;;3.13;0.70;;;18.50;99.90;;;;;;5047518;28;20387;-60
2022/07/22 10:36:35;;;;;;;1.95;0.50;;;18.50;99.90;;;;;;5046956;28;20837;-60
2022/07/22 10:39:04;;;;;;;2.63;0.85;;;18.50;99.90;;;;;;5047190;28;20072;-60
2022/07/22 10:41:38;;;;;;;6.47;0.88;;;18.50;99.90;;;;;;5047579;28;20460;-60
2022/07/22 10:44:04;;;;;;;1.75;0.70;;;18.60;99.90;;;;;;5046472;28;20049;-60
2022/07/22 10:46:58;;;;;;;4.25;0.85;;;18.50;99.90;;;;;;5047445;28;20048;-60
2022/07/22 10:49:25;;;;;;;2.72;0.60;;;18.50;99.90;;;;;;5046384;28;20059;-60
2022/07/22 10:52:16;;;;;;;2.28;0.60;;;18.50;99.90;;;;;;5047168;28;20131;-60
2022/07/22 10:55:15;;;;;;;2.40;0.60;;;18.60;99.90;;;;;;5047397;28;20045;-60
2022/07/22 10:57:41;;;;;;;0.68;0.40;;;18.60;99.90;;;;;;5046579;28;20049;-60
2022/07/22 11:00:07;;;;;;;1.98;0.28;;;18.60;99.90;;;;;;5046959;28;20079;-60
2022/07/22 11:02:35;;;;;;;2.78;0.47;;;18.60;99.90;;;;;;5046806;28;20651;-60
2022/07/22 11:05:02;;;;;;;2.58;0.45;;;18.50;99.90;;;;;;5046401;28;20080;-60
2022/07/22 11:07:30;;;;;;;4.35;0.50;;;18.50;99.90;;;;;;5046956;28;20045;-60
2022/07/22 11:10:08;;;;;;;4.10;0.40;;;18.40;99.90;;;;;;5046655;28;20041;-60
2022/07/22 11:12:34;;;;;;;1.92;0.60;;;18.40;99.90;;;;;;5046840;28;20488;-60
2022/07/22 11:15:06;;;;;;;2.83;0.60;;;18.40;99.90;;;;;;5046556;28;20043;-60
2022/07/22 11:17:34;;;;;;;0.93;0.40;;;18.50;99.90;;;;;;5046048;28;20163;-60
2022/07/22 11:20:01;;;;;;;1.40;0.30;;;18.60;99.90;;;;;;5046818;28;20328;-60
2022/07/22 11:22:27;;;;;;;3.70;0.63;;;18.60;99.90;;;;;;5046924;28;20091;-60
2022/07/22 11:24:53;;;;;;;4.65;0.50;;;18.60;99.90;;;;;;5046345;28;20073;-60
2022/07/22 11:27:21;;;;;;;0.73;0.43;;;18.60;99.90;;;;;;5046605;28;20179;-60
2022/07/22 11:29:52;;;;;;;1.05;0.40;;;18.60;99.90;;;;;;5046219;28;20056;-60
2022/07/22 11:32:20;;;;;;;1.38;0.38;;;18.70;99.90;;;;;;5045996;28;20435;-60
2022/07/22 11:34:47;;;;;;;1.85;0.63;;;18.80;99.90;;;;;;5046438;28;20507;-60
2022/07/22 11:37:23;;;;;;;1.15;0.40;;;18.80;99.90;;;;;;5046479;28;20045;-60
2022/07/22 11:39:50;;;;;;;1.08;0.30;;;18.80;99.90;;;;;;5045644;28;20484;-60
2022/07/22 11:42:16;;;;;;;1.55;0.40;;;18.90;99.90;;;;;;5046108;28;20049;-60
2022/07/22 11:44:42;;;;;;;2.72;0.40;;;19.00;99.90;;;;;;5045294;28;20049;-60
2022/07/22 11:47:09;;;;;;;0.50;0.30;;;19.00;99.90;;;;;;5045726;28;20045;-60
2022/07/22 11:49:37;;;;;;;2.47;0.28;;;19.10;99.90;;;;;;5046693;28;20040;-60
2022/07/22 11:52:04;;;;;;;1.25;0.30;;;19.00;99.90;;;;;;5046079;28;20511;-60
2022/07/22 11:54:30;;;;;;;2.28;0.50;;;19.00;99.90;;;;;;5045619;28;20547;-60
2022/07/22 11:56:56;;;;;;;1.42;0.35;;;19.00;99.90;;;;;;5046228;28;20059;-60
2022/07/22 11:59:22;;;;;;;1.45;0.47;;;19.00;99.90;;;;;;5046073;28;20539;-60
2022/07/22 12:01:48;;;;;;;2.03;0.40;;;19.10;99.90;;;;;;5045975;28;20041;-60
2022/07/22 12:04:19;;;;;;;2.03;0.40;;;19.10;99.90;;;;;;5046271;28;20053;-60
2022/07/22 12:06:45;;;;;;;0.80;0.43;;;19.20;99.90;;;;;;5045695;28;20049;-60
2022/07/22 12:09:33;;;;;;;1.92;0.38;;;19.20;99.90;;;;;;5046061;28;20279;-60
2022/07/22 12:11:59;;;;;;;1.40;0.22;;;19.20;99.90;;;;;;5046039;28;20299;-60
2022/07/22 12:14:31;;;;;;;0.50;0.30;;;19.20;99.90;;;;;;5045914;28;20484;-60
2022/07/22 12:17:09;;;;;;;1.10;0.35;;;19.20;99.90;;;;;;5046246;28;20159;-60
2022/07/22 12:19:36;;;;;;;0.80;0.30;;;19.20;99.90;;;;;;5046662;28;20116;-60
2022/07/22 12:22:04;;;;;;;5.38;0.75;;;19.20;99.90;;;;;;5045181;28;20044;-60
2022/07/22 12:24:38;;;;;;;0.70;0.20;;;19.20;99.90;;;;;;5046014;28;20119;-60
2022/07/22 12:27:14;;;;;;;2.75;0.57;;;19.20;99.90;;;;;;5045932;28;20048;-60
2022/07/22 12:29:40;;;;;;;0.65;0.35;;;19.30;99.90;;;;;;5045483;28;20037;-60
2022/07/22 12:32:14;;;;;;;2.05;0.50;;;19.40;99.90;;;;;;5045760;28;20548;-60
2022/07/22 12:34:45;;;;;;;2.08;0.40;;;19.30;99.90;;;;;;5045385;28;20049;-60
2022/07/22 12:37:40;;;;;;;1.25;0.40;;;19.40;99.90;;;;;;5044986;28;20082;-60
2022/07/22 12:40:16;;;;;;;2.25;0.43;;;19.40;99.90;;;;;;5045743;28;20049;-60
2022/07/22 12:42:45;;;;;;;2.53;0.30;;;19.30;99.90;;;;;;5045077;28;20048;-60
2022/07/22 12:45:16;;;;;;;3.58;0.70;;;19.30;99.90;;;;;;5045913;28;20045;-60